Aeroporto :
LOGIN :

Iscrizione | Disclaimer

   EN    FR    IT 

 










Sommario :    VFR   VFR Marginale   IFR   IFR Intensivo   IFR Molto Intensivo
Visibilità : 
Base nubi : 
>= 8 km
>= 3000ft
5 / 8 km
1000 / 3000 ft
1500m / 5 km
500 / 1000 ft
800 / 1500m
200 / 500 ft
< 800m
< 200 ft
Simboli :   Temporali  Nebbia  Neve Forte  Precipitazioni Forti  Vento > 20 kt
SIGMETs :   Varie  Temporali  Ghiacco  Turbolenza  Onda orograficha  Ceneri Vulcaniche






- Altitudine del aeroporto : 357 ft
- Codice IATA : TUF


LFOT - Tours

ULTIMO METAR :
  • 121330Z AUTO 25011KT CAVOK 10/04 Q1006 TEMPO 28015G30KT 2500 SHRA SCT025CB

METARs OBSOLETI :
  • 121300Z AUTO 26012KT 9999 FEW028 SCT033 BKN044 11/04 Q1006 TEMPO 4000 -SHRA BKN030TCU
  • 121230Z AUTO 29009KT 250V320 9999 FEW029 BKN035 BKN044 10/05 Q1006 TEMPO 4000 -SHRA BKN030TCU
  • 121200Z AUTO 29013KT 260V320 9999 BKN026 BKN032 BKN038 09/04 Q1007 TEMPO 4000 -SHRA BKN030TCU
  • 121130Z AUTO 27012KT 9999 BKN024 BKN072 10/05 Q1007 TEMPO 4000 -SHRA BKN030CB

TAF TAF LFOT
Valido dal 12 a 12 ore il 13 a 12 ore UTC


121100Z 1212/1312 27010KT 9999 SCT020
TEMPO 1212/1218 27012G22KT 4000 -SHRA BKN030TCU
PROB40
TEMPO 1215/1217 28015G30KT 2500 SHRA SCT025CB
BECMG 1218/1220 SCT040
PROB30
TEMPO 1304/1309 4000 BR BKN008



MetMap, La meteo Aeronautica in un colpo d'occhio ! - Copyright ORBIFLY Dicembre 2007 - Disclaimer

ORBIFLY MET'MAP TEAM :

Programmazione e sviluppo : Alexandra Zaïnal
Concezione e sviluppo : Baudouin d'Aumeries
Co-Programmazione e sviluppo : Marc-Olivier Méhu
Supporto tecnico e logistico : Manuel Goepfert
Aiuto per la traduzione : Arnaldo La Scala

Contatto : metmap@orbifly.com




FONTI E CREDITI :

   NOAA